This is the latest recevied weather packets stored in our database for station/object W4JCW. If no packets are shown the sender has not sent any weather packets the latest 10 day(s).
| Time | Temp. | Humidity | Pressure | Rain* | Wind** | Luminosity | Snow |
|---|---|---|---|---|---|---|---|
| 1777648553 | 15.56° C | 56% | 1013.5 hPa | 0 mm | - | 109 W/m² | - |
| 1777648250 | 15.56° C | 56% | 1013.3 hPa | 0 mm | - | 114 W/m² | - |
| 1777647950 | 15.56° C | 55% | 1013.8 hPa | 0 mm | - | 88 W/m² | - |
| 1777647647 | 15.56° C | 56% | 1013.6 hPa | 0 mm | - | 86 W/m² | - |
| 1777647343 | 15.56° C | 57% | 1013.3 hPa | 0 mm | - | 97 W/m² | - |
| 1777647042 | 15.56° C | 57% | 1013.5 hPa | 0 mm | - | 98 W/m² | - |
| 1777646737 | 15.56° C | 57% | 1013.2 hPa | 0 mm | - | 94 W/m² | - |
| 1777646432 | 15° C | 56% | 1013.3 hPa | 0 mm | - | 86 W/m² | - |
| 1777646129 | 15.56° C | 55% | 1013.1 hPa | 0 mm | - | 81 W/m² | - |
| 1777645827 | 15.56° C | 56% | 1013 hPa | 0 mm | - | 98 W/m² | - |
| 1777645524 | 15.56° C | 56% | 1013 hPa | 0 mm | - | 109 W/m² | - |
| 1777645219 | 15.56° C | 56% | 1012.8 hPa | 0 mm | - | 119 W/m² | - |
| 1777644915 | 15° C | 56% | 1012.9 hPa | 0 mm | - | 122 W/m² | - |
| 1777644614 | 15° C | 55% | 1012.9 hPa | 0 mm | - | 114 W/m² | - |
| 1777644309 | 15° C | 55% | 1012.8 hPa | 0 mm | - | 119 W/m² | - |
| 1777644005 | 15° C | 56% | 1012.8 hPa | 0 mm | - | 116 W/m² | - |
| 1777643702 | 15° C | 54% | 1013 hPa | 0 mm | - | 112 W/m² | - |
| 1777643400 | 15° C | 55% | 1013 hPa | 0 mm | - | 102 W/m² | - |
| 1777643096 | 15° C | 56% | 1013.1 hPa | 0 mm | - | 84 W/m² | - |
| 1777642793 | 15° C | 56% | 1012.9 hPa | 0 mm | - | 72 W/m² | - |
| 1777642490 | 15° C | 55% | 1013 hPa | 0 mm | - | 66 W/m² | - |
| 1777642186 | 15° C | 54% | 1012.8 hPa | 0 mm | - | 88 W/m² | - |
| 1777641884 | 15° C | 54% | 1012.6 hPa | 0 mm | - | 105 W/m² | - |
| 1777641584 | 15° C | 55% | 1012.7 hPa | 0 mm | - | 87 W/m² | - |
| 1777641283 | 15° C | 54% | 1012.4 hPa | 0 mm | - | 98 W/m² | - |
* Rain latest hour (hover to see other rain measurements)
** Current wind speed in m/s (hover to see current wind gust speed)